Dati Storici

Data ora Umidita' aria (%) Temperatura aria (°C) Rad globale (W/m²) Gonioanemometro (°) Tacoanemometro (m/s) Pioggia (mm)
14-06-2020 08:50 78.4 % 20.055 -64.162 1.666 0 0
14-06-2020 08:40 79.8 % 20.776 -58.937 0.941 0 0
14-06-2020 08:30 82.1 % 20.213 -56.467 -0.011 0 0
14-06-2020 08:20 81.1 % 19.6 -63.157 1.993 0 0
14-06-2020 08:10 84.2 % 20.177 -48.452 1.385 0 0
14-06-2020 08:00 87.5 % 20.087 -51.084 0.178 0 0
14-06-2020 07:50 90.7 % 18.831 -71.601 -0.017 0 0
14-06-2020 07:40 92.1 % 18.482 -60.738 1.522 0 0
14-06-2020 07:30 91.2 % 18.377 -63.405 1.435 0 0
14-06-2020 07:20 94.1 % 18.366 -57.159 -0.018 0 0
14-06-2020 07:10 97.6 % 17.651 -50.225 -0.009 0 0
14-06-2020 07:00 97.7 % 16.653 -52.12 1.837 0 0
14-06-2020 06:50 97.7 % 16.35 -73.621 2.193 0 0
14-06-2020 06:40 97.7 % 16.551 -55.344 -0.003 0 0
14-06-2020 06:30 97.7 % 16.348 -56.87 1.055 0 0
14-06-2020 06:20 97.7 % 16.351 -56.421 2.365 0 0
14-06-2020 06:10 97.7 % 16.209 -57.322 1.929 0 0
14-06-2020 06:00 97.7 % 16.247 -61.682 1.718 0 0
14-06-2020 05:50 97.7 % 16.313 -52.191 -0.002 0 0
14-06-2020 05:40 97.7 % 16.109 -67.088 0.549 0 0

I dati sono presentati in modo automatico a scopo informativo. In seguito a verifica i dati possono subire modifiche o essere invalidati e non riportati negli archivi definitivi.